createdAt,value
2018-10-17T08:37:33.956Z,1013.43
2018-10-17T08:38:33.493Z,1013.40
2018-10-17T08:39:33.498Z,1013.37
2018-10-17T08:40:33.433Z,1013.36
2018-10-17T08:41:33.387Z,1013.38
2018-10-17T08:42:33.336Z,1013.34
2018-10-17T08:43:33.284Z,1013.37
2018-10-17T08:44:33.247Z,1013.38
2018-10-17T08:45:33.164Z,1013.34
2018-10-17T08:46:33.094Z,1013.35
2018-10-17T08:47:33.031Z,1013.39
2018-10-17T08:48:32.965Z,1013.35
2018-10-17T08:49:32.925Z,1013.35
2018-10-17T08:50:32.879Z,1013.35
2018-10-17T08:51:32.752Z,1013.32
2018-10-17T08:52:32.680Z,1013.35
2018-10-17T08:53:32.622Z,1013.33
2018-10-17T08:54:32.561Z,1013.34
2018-10-17T08:55:32.462Z,1013.37
2018-10-17T08:56:32.391Z,1013.34
2018-10-17T08:57:32.359Z,1013.33
2018-10-17T08:58:32.246Z,1013.32
2018-10-17T08:59:32.214Z,1013.35
2018-10-17T09:00:32.115Z,1013.31
2018-10-17T09:01:32.049Z,1013.29
2018-10-17T09:02:31.975Z,1013.28
2018-10-17T09:03:31.896Z,1013.26
2018-10-17T09:04:31.819Z,1013.26
2018-10-17T09:05:31.772Z,1013.27
2018-10-17T09:06:31.674Z,1013.28
2018-10-17T09:07:31.626Z,1013.30
2018-10-17T09:08:31.524Z,1013.25
2018-10-17T09:09:31.446Z,1013.30
2018-10-17T09:10:31.419Z,1013.27
2018-10-17T09:11:31.297Z,1013.27
2018-10-17T09:12:31.226Z,1013.26
2018-10-17T09:13:31.278Z,1013.27
2018-10-17T09:14:31.063Z,1013.26
2018-10-17T09:15:31.008Z,1013.29
2018-10-17T09:16:30.990Z,1013.28
2018-10-17T09:17:30.824Z,1013.30
2018-10-17T09:18:30.753Z,1013.27
2018-10-17T09:19:30.881Z,1013.31
2018-10-17T09:20:30.820Z,1013.31
2018-10-17T09:21:30.663Z,1013.34
2018-10-17T09:22:30.521Z,1013.33
2018-10-17T09:23:30.358Z,1013.27
2018-10-17T09:24:30.281Z,1013.30
2018-10-17T09:25:30.262Z,1013.28
2018-10-17T09:26:30.104Z,1013.32
2018-10-17T09:27:30.022Z,1013.31
2018-10-17T09:28:29.933Z,1013.28
2018-10-17T09:29:29.848Z,1013.35
2018-10-17T09:30:29.899Z,1013.29
2018-10-17T09:31:29.680Z,1013.32
2018-10-17T09:32:29.594Z,1013.26
2018-10-17T09:33:29.518Z,1013.29
2018-10-17T09:34:29.429Z,1013.35
2018-10-17T09:35:29.444Z,1013.29
2018-10-17T09:36:29.260Z,1013.35
2018-10-17T09:37:29.178Z,1013.33
2018-10-17T09:38:29.090Z,1013.35
2018-10-17T09:39:29.007Z,1013.33
2018-10-17T09:40:28.948Z,1013.30
2018-10-17T09:41:28.838Z,1013.27
2018-10-17T09:42:28.755Z,1013.32
2018-10-17T09:43:28.668Z,1013.26
2018-10-17T09:44:28.582Z,1013.27
2018-10-17T09:45:28.526Z,1013.24
2018-10-17T09:46:28.408Z,1013.19
2018-10-17T09:47:28.326Z,1013.21
2018-10-17T09:48:28.241Z,1013.23
2018-10-17T09:49:28.162Z,1013.23
2018-10-17T09:50:28.104Z,1013.22
2018-10-17T09:51:28.001Z,1013.22
2018-10-17T09:52:27.909Z,1013.21
2018-10-17T09:53:27.900Z,1013.17
2018-10-17T09:54:27.738Z,1013.24
2018-10-17T09:55:27.684Z,1013.24
2018-10-17T09:56:27.577Z,1013.22
2018-10-17T09:57:27.495Z,1013.22
2018-10-17T09:58:27.418Z,1013.18
2018-10-17T09:59:27.341Z,1013.16
2018-10-17T10:00:27.288Z,1013.16
2018-10-17T10:01:27.183Z,1013.17
2018-10-17T10:02:27.135Z,1013.15
2018-10-17T10:03:27.035Z,1013.13
2018-10-17T10:04:26.955Z,1013.15
2018-10-17T10:05:26.903Z,1013.17
2018-10-17T10:06:26.799Z,1013.17
2018-10-17T10:07:26.716Z,1013.13
2018-10-17T10:08:26.634Z,1013.10
2018-10-17T10:09:26.551Z,1013.11
2018-10-17T10:10:26.497Z,1013.09
2018-10-17T10:11:26.389Z,1013.03
2018-10-17T10:12:26.305Z,1013.05
2018-10-17T10:13:26.221Z,1013.04
2018-10-17T10:14:26.138Z,1012.99
2018-10-17T10:15:26.085Z,1013.00
2018-10-17T10:16:25.975Z,1012.96
2018-10-17T10:17:25.905Z,1012.96
2018-10-17T10:18:25.810Z,1012.95
2018-10-17T10:19:25.727Z,1012.98
2018-10-17T10:20:25.684Z,1012.98
2018-10-17T10:21:25.566Z,1012.97
2018-10-17T10:22:25.484Z,1012.97
2018-10-17T10:23:25.409Z,1013.05
2018-10-17T10:24:25.321Z,1012.97
2018-10-17T10:25:25.402Z,1012.99
2018-10-17T10:26:25.156Z,1013.03
2018-10-17T10:27:25.072Z,1012.97
2018-10-17T10:28:25.091Z,1012.96
2018-10-17T10:29:24.908Z,1012.99
2018-10-17T10:30:24.951Z,1012.96
2018-10-17T10:31:24.750Z,1012.96
2018-10-17T10:32:24.665Z,1012.98
2018-10-17T10:33:24.574Z,1012.96
2018-10-17T10:34:24.490Z,1012.97
2018-10-17T10:35:24.402Z,1012.91
2018-10-17T10:36:24.353Z,1012.93
2018-10-17T10:37:24.239Z,1012.94
2018-10-17T10:38:24.159Z,1012.90
2018-10-17T10:39:24.073Z,1012.87
2018-10-17T10:40:24.016Z,1012.89
2018-10-17T10:41:23.943Z,1012.91
2018-10-17T10:42:23.831Z,1012.87
2018-10-17T10:43:23.747Z,1012.88
2018-10-17T10:44:23.668Z,1012.86
2018-10-17T10:45:23.605Z,1012.85
2018-10-17T10:46:23.532Z,1012.87
2018-10-17T10:47:23.430Z,1012.84
2018-10-17T10:48:23.340Z,1012.84
2018-10-17T10:49:23.255Z,1012.84
2018-10-17T10:50:23.172Z,1012.83
2018-10-17T10:51:23.275Z,1012.80
2018-10-17T10:52:22.993Z,1012.81
2018-10-17T10:53:22.903Z,1012.85
2018-10-17T10:54:22.808Z,1012.78
2018-10-17T10:55:22.725Z,1012.79
2018-10-17T10:56:22.678Z,1012.80
2018-10-17T10:57:22.561Z,1012.79
2018-10-17T10:58:22.666Z,1012.74
2018-10-17T10:59:22.613Z,1012.73
2018-10-17T11:00:22.298Z,1012.75
2018-10-17T11:01:22.232Z,1012.74
2018-10-17T11:02:22.120Z,1012.75
2018-10-17T11:03:22.035Z,1012.73
2018-10-17T11:04:21.946Z,1012.70
2018-10-17T11:05:21.907Z,1012.68
2018-10-17T11:06:21.795Z,1012.72
2018-10-17T11:07:21.675Z,1012.71
2018-10-17T11:08:21.597Z,1012.67
2018-10-17T11:09:21.500Z,1012.67
2018-10-17T11:10:21.412Z,1012.66
2018-10-17T11:11:21.350Z,1012.65
2018-10-17T11:12:21.237Z,1012.63
2018-10-17T11:13:21.155Z,1012.67
2018-10-17T11:14:21.298Z,1012.67
2018-10-17T11:15:21.047Z,1012.61
2018-10-17T11:16:20.913Z,1012.66
2018-10-17T11:17:20.794Z,1012.65
2018-10-17T11:18:20.703Z,1012.66
2018-10-17T11:19:20.621Z,1012.64
2018-10-17T11:20:20.537Z,1012.62
2018-10-17T11:21:20.483Z,1012.62
2018-10-17T11:22:20.369Z,1012.62
2018-10-17T11:23:20.420Z,1012.59
2018-10-17T11:24:20.200Z,1012.64
2018-10-17T11:25:20.114Z,1012.60
2018-10-17T11:26:20.054Z,1012.61
2018-10-17T11:27:19.942Z,1012.55
2018-10-17T11:28:19.858Z,1012.56
2018-10-17T11:29:19.850Z,1012.52
2018-10-17T11:30:19.686Z,1012.54
2018-10-17T11:31:19.640Z,1012.57
2018-10-17T11:32:19.509Z,1012.58
2018-10-17T11:33:19.549Z,1012.54
2018-10-17T11:34:19.322Z,1012.55
2018-10-17T11:35:19.315Z,1012.53
2018-10-17T11:36:19.167Z,1012.51
2018-10-17T11:37:19.095Z,1012.55
2018-10-17T11:38:18.959Z,1012.52
2018-10-17T11:39:18.869Z,1012.56
2018-10-17T11:40:18.785Z,1012.58
2018-10-17T11:41:18.870Z,1012.57
2018-10-17T11:42:18.604Z,1012.51
2018-10-17T11:43:18.513Z,1012.50
2018-10-17T11:44:18.416Z,1012.52
2018-10-17T11:45:18.446Z,1012.52
2018-10-17T11:46:18.259Z,1012.53
2018-10-17T11:47:18.146Z,1012.51
2018-10-17T11:48:18.060Z,1012.51
2018-10-17T11:49:17.973Z,1012.47
2018-10-17T11:50:17.888Z,1012.47
2018-10-17T11:51:17.906Z,1012.46
2018-10-17T11:52:17.710Z,1012.45
2018-10-17T11:53:17.681Z,1012.45
2018-10-17T11:54:17.540Z,1012.42
2018-10-17T11:55:17.451Z,1012.41
2018-10-17T11:56:17.388Z,1012.42
2018-10-17T11:57:17.314Z,1012.36
2018-10-17T11:58:17.195Z,1012.36
2018-10-17T11:59:17.176Z,1012.31
2018-10-17T12:00:17.030Z,1012.30
2018-10-17T12:01:16.971Z,1012.28
2018-10-17T12:02:16.861Z,1012.27
2018-10-17T12:03:16.878Z,1012.30
2018-10-17T12:04:17.199Z,1012.32
2018-10-17T12:05:16.897Z,1012.25
2018-10-17T12:06:16.683Z,1012.26
2018-10-17T12:07:16.436Z,1012.24
2018-10-17T12:08:16.365Z,1012.28
2018-10-17T12:09:16.326Z,1012.21
2018-10-17T12:10:16.174Z,1012.22
2018-10-17T12:11:16.147Z,1012.21
2018-10-17T12:12:16.015Z,1012.19
2018-10-17T12:13:15.926Z,1012.21
2018-10-17T12:14:15.843Z,1012.17
2018-10-17T12:15:15.798Z,1012.17
2018-10-17T12:16:15.713Z,1012.22
2018-10-17T12:17:15.601Z,1012.16
2018-10-17T12:18:15.625Z,1012.12
2018-10-17T12:19:15.498Z,1012.16
2018-10-17T12:20:15.352Z,1012.14
2018-10-17T12:21:15.360Z,1012.12
2018-10-17T12:22:15.179Z,1012.14
2018-10-17T12:23:15.092Z,1012.14
2018-10-17T12:24:15.120Z,1012.11
2018-10-17T12:25:14.934Z,1012.08
2018-10-17T12:26:14.847Z,1012.10
2018-10-17T12:27:14.899Z,1012.05
2018-10-17T12:28:14.801Z,1012.03
2018-10-17T12:29:14.581Z,1012.05
2018-10-17T12:30:14.607Z,1012.02
2018-10-17T12:31:14.406Z,1012.00
2018-10-17T12:32:14.340Z,1012.03
2018-10-17T12:33:14.297Z,1012.02
2018-10-17T12:34:14.142Z,1012.01
2018-10-17T12:35:14.100Z,1011.99
2018-10-17T12:36:13.983Z,1011.99
2018-10-17T12:37:13.912Z,1012.03
2018-10-17T12:38:13.803Z,1012.03
2018-10-17T12:39:13.764Z,1012.02
2018-10-17T12:40:13.777Z,1011.98
2018-10-17T12:41:13.665Z,1011.98
2018-10-17T12:42:13.479Z,1011.99
2018-10-17T12:43:13.370Z,1011.99
2018-10-17T12:44:13.358Z,1011.97
2018-10-17T12:45:13.281Z,1011.94
2018-10-17T12:46:13.122Z,1011.96
2018-10-17T12:47:13.160Z,1011.99
2018-10-17T12:48:12.941Z,1011.97
2018-10-17T12:49:12.949Z,1011.97
2018-10-17T12:50:12.848Z,1011.94
2018-10-17T12:51:12.683Z,1011.98
2018-10-17T12:52:12.713Z,1011.94
2018-10-17T12:53:12.580Z,1011.94
2018-10-17T12:54:12.433Z,1011.95
2018-10-17T12:55:12.362Z,1011.96
2018-10-17T12:56:12.281Z,1011.97
2018-10-17T12:57:12.208Z,1011.96
2018-10-17T12:58:12.093Z,1011.94
2018-10-17T12:59:12.091Z,1011.96
2018-10-17T13:00:11.915Z,1011.92
2018-10-17T13:01:11.951Z,1011.89
2018-10-17T13:02:11.881Z,1011.92
2018-10-17T13:03:11.653Z,1011.92
2018-10-17T13:04:11.601Z,1011.93
2018-10-17T13:05:11.505Z,1011.90
2018-10-17T13:06:11.378Z,1011.89
2018-10-17T13:07:11.451Z,1011.85
2018-10-17T13:08:11.214Z,1011.85
2018-10-17T13:09:11.116Z,1011.90
2018-10-17T13:10:11.026Z,1011.87
2018-10-17T13:11:11.063Z,1011.87
2018-10-17T13:12:10.873Z,1011.83
2018-10-17T13:13:10.951Z,1011.85
2018-10-17T13:14:10.678Z,1011.85
2018-10-17T13:15:10.678Z,1011.84
2018-10-17T13:16:10.519Z,1011.83
2018-10-17T13:17:10.579Z,1011.84
2018-10-17T13:18:10.345Z,1011.85
2018-10-17T13:19:10.352Z,1011.76
2018-10-17T13:20:10.168Z,1011.83
2018-10-17T13:21:10.081Z,1011.81
2018-10-17T13:22:10.029Z,1011.76
2018-10-17T13:23:09.930Z,1011.78
2018-10-17T13:24:09.830Z,1011.78
2018-10-17T13:25:09.823Z,1011.77
2018-10-17T13:26:09.674Z,1011.75
2018-10-17T13:27:09.630Z,1011.76
2018-10-17T13:28:09.509Z,1011.77
2018-10-17T13:29:09.528Z,1011.72
2018-10-17T13:30:09.420Z,1011.67
2018-10-17T13:31:09.255Z,1011.65
2018-10-17T13:32:09.269Z,1011.68
2018-10-17T13:33:09.081Z,1011.72
2018-10-17T13:34:09.083Z,1011.71
2018-10-17T13:35:09.076Z,1011.72
2018-10-17T13:36:08.836Z,1011.68
2018-10-17T13:37:08.864Z,1011.68
2018-10-17T13:38:08.672Z,1011.70
2018-10-17T13:39:08.592Z,1011.75
2018-10-17T13:40:08.590Z,1011.73
2018-10-17T13:41:08.505Z,1011.74
2018-10-17T13:42:08.503Z,1011.72
2018-10-17T13:43:08.317Z,1011.70
2018-10-17T13:44:08.192Z,1011.69
2018-10-17T13:45:08.098Z,1011.68
2018-10-17T13:46:08.019Z,1011.69
2018-10-17T13:47:08.052Z,1011.66
2018-10-17T13:48:07.896Z,1011.71
2018-10-17T13:49:07.887Z,1011.66
2018-10-17T13:50:07.682Z,1011.65
2018-10-17T13:51:07.599Z,1011.61
2018-10-17T13:52:07.538Z,1011.65
2018-10-17T13:53:07.512Z,1011.63
2018-10-17T13:54:07.343Z,1011.59
2018-10-17T13:55:07.333Z,1011.59
2018-10-17T13:56:07.201Z,1011.63
2018-10-17T13:57:07.117Z,1011.59
2018-10-17T13:58:07.073Z,1011.59
2018-10-17T13:59:06.987Z,1011.63
2018-10-17T14:00:06.900Z,1011.58
2018-10-17T14:01:06.869Z,1011.59
2018-10-17T14:02:06.698Z,1011.60
2018-10-17T14:03:06.585Z,1011.60
2018-10-17T14:04:06.572Z,1011.59
2018-10-17T14:05:06.423Z,1011.58
2018-10-17T14:06:06.358Z,1011.62
2018-10-17T14:07:06.332Z,1011.62
2018-10-17T14:08:06.166Z,1011.59
2018-10-17T14:09:06.152Z,1011.58
2018-10-17T14:10:05.997Z,1011.66
2018-10-17T14:11:08.372Z,1011.59
2018-10-17T14:12:08.479Z,1011.59
2018-10-17T14:13:08.494Z,1011.60
2018-10-17T14:14:08.488Z,1011.65
2018-10-17T14:15:06.633Z,1011.57
2018-10-17T14:16:05.849Z,1011.60
2018-10-17T14:17:05.612Z,1011.62
2018-10-17T14:18:05.741Z,1011.61
2018-10-17T14:19:05.731Z,1011.61
2018-10-17T14:20:05.189Z,1011.56
2018-10-17T14:21:05.145Z,1011.59
2018-10-17T14:22:07.758Z,1011.54
2018-10-17T14:23:05.595Z,1011.53
2018-10-17T14:24:05.878Z,1011.56
2018-10-17T14:25:04.869Z,1011.50
2018-10-17T14:26:04.720Z,1011.52
2018-10-17T14:27:05.992Z,1011.52
2018-10-17T14:28:04.645Z,1011.50
2018-10-17T14:29:07.020Z,1011.51
2018-10-17T14:30:07.054Z,1011.53
2018-10-17T14:31:07.060Z,1011.54
2018-10-17T14:32:07.074Z,1011.51
2018-10-17T14:33:07.169Z,1011.53
2018-10-17T14:34:04.060Z,1011.53
2018-10-17T14:35:03.981Z,1011.51
2018-10-17T14:36:03.992Z,1011.51
2018-10-17T14:37:06.204Z,1011.50
2018-10-17T14:38:09.238Z,1011.51
2018-10-17T14:39:03.658Z,1011.50
2018-10-17T14:40:03.588Z,1011.48
2018-10-17T14:41:03.565Z,1011.50
2018-10-17T14:42:03.400Z,1011.51
2018-10-17T14:43:03.717Z,1011.49
2018-10-17T14:44:03.203Z,1011.48
2018-10-17T14:45:05.365Z,1011.47
2018-10-17T14:46:04.949Z,1011.48
2018-10-17T14:47:05.291Z,1011.52
2018-10-17T14:48:05.419Z,1011.53
2018-10-17T14:49:03.396Z,1011.48
2018-10-17T14:50:02.807Z,1011.54
2018-10-17T14:51:03.169Z,1011.52
2018-10-17T14:52:05.514Z,1011.51
2018-10-17T14:53:04.649Z,1011.50
2018-10-17T14:54:05.554Z,1011.54
2018-10-17T14:55:03.225Z,1011.46
2018-10-17T14:56:02.232Z,1011.49
2018-10-17T14:57:04.639Z,1011.53
2018-10-17T14:58:04.704Z,1011.47
2018-10-17T14:59:01.973Z,1011.49
2018-10-17T15:00:04.680Z,1011.50
2018-10-17T15:01:04.731Z,1011.48
2018-10-17T15:02:03.750Z,1011.51
2018-10-17T15:03:04.884Z,1011.47
2018-10-17T15:04:03.790Z,1011.47
2018-10-17T15:05:03.836Z,1011.46
2018-10-17T15:06:01.695Z,1011.48
2018-10-17T15:07:01.225Z,1011.46
2018-10-17T15:08:04.766Z,1011.50
2018-10-17T15:09:01.127Z,1011.48
2018-10-17T15:10:02.039Z,1011.48
2018-10-17T15:11:01.056Z,1011.50
2018-10-17T15:12:02.710Z,1011.55
2018-10-17T15:13:00.700Z,1011.52
2018-10-17T15:14:02.892Z,1011.50
2018-10-17T15:15:00.534Z,1011.48
2018-10-17T15:16:01.140Z,1011.47
2018-10-17T15:17:03.096Z,1011.47
2018-10-17T15:18:03.065Z,1011.50
2018-10-17T15:19:02.980Z,1011.51
2018-10-17T15:20:02.998Z,1011.51
2018-10-17T15:21:02.057Z,1011.50
2018-10-17T15:22:02.033Z,1011.49
2018-10-17T15:23:02.094Z,1011.48
2018-10-17T15:24:02.116Z,1011.46
2018-10-17T15:24:59.638Z,1011.46
2018-10-17T15:25:59.528Z,1011.47
2018-10-17T15:26:59.525Z,1011.48
2018-10-17T15:28:00.352Z,1011.53
2018-10-17T15:28:59.338Z,1011.49
2018-10-17T15:30:01.285Z,1011.49
2018-10-17T15:31:01.323Z,1011.46
2018-10-17T15:32:01.361Z,1011.50
2018-10-17T15:32:59.002Z,1011.47
2018-10-17T15:33:58.918Z,1011.49
2018-10-17T15:35:01.378Z,1011.52
2018-10-17T15:36:00.432Z,1011.51
2018-10-17T15:37:01.601Z,1011.54
2018-10-17T15:38:03.390Z,1011.55
2018-10-17T15:39:00.548Z,1011.55
2018-10-17T15:39:59.567Z,1011.53
2018-10-17T15:40:58.293Z,1011.59
2018-10-17T15:41:58.304Z,1011.56
2018-10-17T15:42:58.176Z,1011.60
2018-10-17T15:43:58.048Z,1011.58
2018-10-17T15:45:00.632Z,1011.61
2018-10-17T15:46:00.635Z,1011.64
2018-10-17T15:47:00.658Z,1011.61
2018-10-17T15:48:00.744Z,1011.63
2018-10-17T15:48:59.688Z,1011.67
2018-10-17T15:49:57.560Z,1011.61
2018-10-17T15:50:59.714Z,1011.62
2018-10-17T15:51:59.722Z,1011.60
2018-10-17T15:52:59.794Z,1011.63
2018-10-17T15:53:59.869Z,1011.64
2018-10-17T15:54:59.799Z,1011.63
2018-10-17T15:55:57.079Z,1011.58
2018-10-17T15:56:59.836Z,1011.63
2018-10-17T15:57:57.538Z,1011.66
2018-10-17T15:58:58.941Z,1011.65
2018-10-17T15:59:58.975Z,1011.67
2018-10-17T16:00:56.708Z,1011.70
2018-10-17T16:01:56.594Z,1011.66
2018-10-17T16:02:56.487Z,1011.65
2018-10-17T16:03:56.416Z,1011.69
2018-10-17T16:04:56.311Z,1011.65
2018-10-17T16:05:56.227Z,1011.71
2018-10-17T16:06:56.146Z,1011.70
2018-10-17T16:07:56.102Z,1011.70
2018-10-17T16:08:55.993Z,1011.71
2018-10-17T16:09:55.885Z,1011.69
2018-10-17T16:10:55.807Z,1011.70
2018-10-17T16:11:55.793Z,1011.71
2018-10-17T16:12:55.645Z,1011.71
2018-10-17T16:13:55.599Z,1011.72
2018-10-17T16:14:55.475Z,1011.76
2018-10-17T16:15:55.390Z,1011.71
2018-10-17T16:16:55.348Z,1011.72
2018-10-17T16:17:55.245Z,1011.75
2018-10-17T16:18:55.168Z,1011.73
2018-10-17T16:19:55.070Z,1011.75
2018-10-17T16:20:54.973Z,1011.74
2018-10-17T16:21:54.890Z,1011.76
2018-10-17T16:22:54.950Z,1011.77
2018-10-17T16:23:54.804Z,1011.81
2018-10-17T16:24:54.653Z,1011.77
2018-10-17T16:25:54.630Z,1011.78
2018-10-17T16:26:54.489Z,1011.77
2018-10-17T16:27:54.404Z,1011.72
2018-10-17T16:28:54.345Z,1011.73
2018-10-17T16:29:54.267Z,1011.76
2018-10-17T16:30:54.211Z,1011.80
2018-10-17T16:31:54.076Z,1011.78
2018-10-17T16:32:53.990Z,1011.82
2018-10-17T16:33:53.937Z,1011.78
2018-10-17T16:34:53.837Z,1011.85
2018-10-17T16:35:53.827Z,1011.85
2018-10-17T16:36:53.680Z,1011.81
2018-10-17T16:37:53.649Z,1011.88
2018-10-17T16:38:53.534Z,1011.85
2018-10-17T16:39:53.424Z,1011.92
2018-10-17T16:40:53.398Z,1011.87
2018-10-17T16:41:53.310Z,1011.91
2018-10-17T16:42:53.185Z,1011.94
2018-10-17T16:43:53.129Z,1011.93
2018-10-17T16:44:53.019Z,1011.93
2018-10-17T16:45:52.939Z,1011.93
2018-10-17T16:46:52.853Z,1011.93
2018-10-17T16:47:52.815Z,1011.94
2018-10-17T16:48:52.711Z,1011.97
2018-10-17T16:49:52.753Z,1012.00
2018-10-17T16:50:52.539Z,1012.01
2018-10-17T16:51:52.413Z,1011.99
2018-10-17T16:52:52.330Z,1012.02
2018-10-17T16:53:52.849Z,1012.03
2018-10-17T16:54:52.148Z,1012.03
2018-10-17T16:55:52.066Z,1012.05
2018-10-17T16:56:52.013Z,1012.04
2018-10-17T16:57:51.906Z,1012.04
2018-10-17T16:58:51.840Z,1012.10
2018-10-17T16:59:51.725Z,1012.13
2018-10-17T17:00:51.639Z,1012.13
2018-10-17T17:01:51.548Z,1012.14
2018-10-17T17:02:51.461Z,1012.18
2018-10-17T17:03:51.389Z,1012.16
2018-10-17T17:04:51.273Z,1012.19
2018-10-17T17:05:51.211Z,1012.20
2018-10-17T17:06:51.085Z,1012.17
2018-10-17T17:07:50.994Z,1012.20
2018-10-17T17:08:50.923Z,1012.22
2018-10-17T17:09:50.807Z,1012.24
2018-10-17T17:10:50.717Z,1012.24
2018-10-17T17:11:50.619Z,1012.22
2018-10-17T17:12:50.524Z,1012.27
2018-10-17T17:13:50.456Z,1012.29
2018-10-17T17:14:50.336Z,1012.23
2018-10-17T17:15:50.240Z,1012.24
2018-10-17T17:16:50.144Z,1012.24
2018-10-17T17:17:50.057Z,1012.27
2018-10-17T17:18:50.059Z,1012.28
2018-10-17T17:19:49.880Z,1012.27
2018-10-17T17:20:49.791Z,1012.31
2018-10-17T17:21:49.707Z,1012.30
2018-10-17T17:22:49.735Z,1012.38
2018-10-17T17:23:49.549Z,1012.33
2018-10-17T17:24:49.431Z,1012.39
2018-10-17T17:25:49.341Z,1012.41
2018-10-17T17:26:49.250Z,1012.38
2018-10-17T17:27:49.167Z,1012.40
2018-10-17T17:28:50.876Z,1012.39
2018-10-17T17:29:49.068Z,1012.39
2018-10-17T17:30:48.911Z,1012.41
2018-10-17T17:31:48.820Z,1012.38
2018-10-17T17:32:48.722Z,1012.36
2018-10-17T17:33:48.648Z,1012.39
2018-10-17T17:34:48.557Z,1012.41
2018-10-17T17:35:48.436Z,1012.42
2018-10-17T17:36:48.347Z,1012.42
2018-10-17T17:37:48.257Z,1012.47
2018-10-17T17:38:48.165Z,1012.47
2018-10-17T17:39:48.101Z,1012.51
2018-10-17T17:40:47.984Z,1012.51
2018-10-17T17:41:47.888Z,1012.47
2018-10-17T17:42:47.795Z,1012.49
2018-10-17T17:43:47.689Z,1012.49
2018-10-17T17:44:47.617Z,1012.51
2018-10-17T17:45:47.490Z,1012.50
2018-10-17T17:46:47.457Z,1012.54
2018-10-17T17:47:47.289Z,1012.50
2018-10-17T17:48:47.195Z,1012.53
2018-10-17T17:49:47.129Z,1012.57
2018-10-17T17:50:47.011Z,1012.53
2018-10-17T17:51:47.038Z,1012.54
2018-10-17T17:52:46.836Z,1012.58
2018-10-17T17:53:46.749Z,1012.59
2018-10-17T17:54:46.689Z,1012.59
2018-10-17T17:55:46.628Z,1012.63
2018-10-17T17:56:46.465Z,1012.63
2018-10-17T17:57:46.415Z,1012.65
2018-10-17T17:58:46.499Z,1012.61
2018-10-17T17:59:46.220Z,1012.64
2018-10-17T18:00:46.104Z,1012.65
2018-10-17T18:01:46.016Z,1012.62
2018-10-17T18:02:45.926Z,1012.66
2018-10-17T18:03:45.839Z,1012.67
2018-10-17T18:04:45.773Z,1012.64
2018-10-17T18:05:45.653Z,1012.69
2018-10-17T18:06:45.586Z,1012.70
2018-10-17T18:07:45.473Z,1012.72
2018-10-17T18:08:45.385Z,1012.73
2018-10-17T18:09:45.317Z,1012.77
2018-10-17T18:10:45.197Z,1012.77
2018-10-17T18:11:45.105Z,1012.76
2018-10-17T18:12:45.010Z,1012.75
2018-10-17T18:13:44.921Z,1012.78
2018-10-17T18:14:44.852Z,1012.76
2018-10-17T18:15:44.733Z,1012.80
2018-10-17T18:16:44.640Z,1012.76
2018-10-17T18:17:44.554Z,1012.76
2018-10-17T18:18:44.462Z,1012.79
2018-10-17T18:19:44.391Z,1012.79
2018-10-17T18:20:44.274Z,1012.79
2018-10-17T18:21:44.200Z,1012.84
2018-10-17T18:22:44.093Z,1012.84
2018-10-17T18:23:43.998Z,1012.87
2018-10-17T18:24:43.947Z,1012.87
2018-10-17T18:25:43.824Z,1012.88
2018-10-17T18:26:43.733Z,1012.89
2018-10-17T18:27:43.672Z,1012.88
2018-10-17T18:28:43.555Z,1012.90
2018-10-17T18:29:43.499Z,1012.94
2018-10-17T18:30:43.388Z,1012.93
2018-10-17T18:31:43.303Z,1012.90
2018-10-17T18:32:43.214Z,1012.96
2018-10-17T18:33:43.133Z,1012.96
2018-10-17T18:34:43.062Z,1013.01
2018-10-17T18:35:42.945Z,1013.01
2018-10-17T18:36:42.857Z,1013.03
2018-10-17T18:37:42.775Z,1013.03
2018-10-17T18:38:42.694Z,1013.03
2018-10-17T18:39:42.635Z,1013.05
2018-10-17T18:40:42.592Z,1013.10
2018-10-17T18:41:42.435Z,1013.13
2018-10-17T18:42:42.347Z,1013.09
2018-10-17T18:43:42.258Z,1013.10
2018-10-17T18:44:42.190Z,1013.13
2018-10-17T18:45:42.145Z,1013.08
2018-10-17T18:46:41.985Z,1013.10
2018-10-17T18:47:41.950Z,1013.14
2018-10-17T18:48:41.828Z,1013.11
2018-10-17T18:49:41.758Z,1013.16
2018-10-17T18:50:41.646Z,1013.11
2018-10-17T18:51:41.558Z,1013.16
2018-10-17T18:52:41.476Z,1013.14
2018-10-17T18:53:41.383Z,1013.15
2018-10-17T18:54:41.325Z,1013.16
2018-10-17T18:55:41.265Z,1013.20
2018-10-17T18:56:41.118Z,1013.27
2018-10-17T18:57:41.032Z,1013.21
2018-10-17T18:58:40.938Z,1013.29
2018-10-17T18:59:40.871Z,1013.25
2018-10-17T19:00:40.757Z,1013.25
2018-10-17T19:01:40.768Z,1013.27
2018-10-17T19:02:40.572Z,1013.27
2018-10-17T19:03:40.494Z,1013.21
2018-10-17T19:04:40.419Z,1013.25
2018-10-17T19:05:40.299Z,1013.27
2018-10-17T19:06:40.212Z,1013.29
2018-10-17T19:07:40.128Z,1013.29
2018-10-17T19:08:40.037Z,1013.29
2018-10-17T19:09:39.993Z,1013.25
2018-10-17T19:10:39.866Z,1013.35
2018-10-17T19:11:39.783Z,1013.37
2018-10-17T19:12:39.705Z,1013.37
2018-10-17T19:13:39.625Z,1013.42
2018-10-17T19:14:39.533Z,1013.41
2018-10-17T19:15:39.474Z,1013.43
2018-10-17T19:16:39.405Z,1013.43
2018-10-17T19:17:39.268Z,1013.48
2018-10-17T19:18:39.183Z,1013.45
2018-10-17T19:19:39.092Z,1013.44
2018-10-17T19:20:39.055Z,1013.51
2018-10-17T19:21:38.924Z,1013.49
2018-10-17T19:22:38.856Z,1013.53
2018-10-17T19:23:38.756Z,1013.50
2018-10-17T19:24:38.712Z,1013.51
2018-10-17T19:25:38.602Z,1013.50
2018-10-17T19:26:38.490Z,1013.57
2018-10-17T19:27:38.410Z,1013.55
2018-10-17T19:28:38.328Z,1013.55
2018-10-17T19:29:38.245Z,1013.54
2018-10-17T19:30:38.182Z,1013.55
2018-10-17T19:31:38.077Z,1013.53
2018-10-17T19:32:37.999Z,1013.56
2018-10-17T19:33:37.919Z,1013.57
2018-10-17T19:34:37.840Z,1013.56
2018-10-17T19:35:37.781Z,1013.60
2018-10-17T19:36:37.668Z,1013.52
2018-10-17T19:37:37.578Z,1013.57
2018-10-17T19:38:37.492Z,1013.56
2018-10-17T19:39:37.406Z,1013.58
2018-10-17T19:40:37.347Z,1013.59
2018-10-17T19:41:37.235Z,1013.58
2018-10-17T19:42:37.147Z,1013.57
2018-10-17T19:43:37.062Z,1013.61
2018-10-17T19:44:36.978Z,1013.60
2018-10-17T19:45:36.917Z,1013.62
2018-10-17T19:46:36.805Z,1013.61
2018-10-17T19:47:36.749Z,1013.62
2018-10-17T19:48:36.646Z,1013.62
2018-10-17T19:49:36.566Z,1013.66
2018-10-17T19:50:36.513Z,1013.63
2018-10-17T19:51:36.402Z,1013.66
2018-10-17T19:52:36.328Z,1013.66
2018-10-17T19:53:36.239Z,1013.65
2018-10-17T19:54:36.156Z,1013.63
2018-10-17T19:55:36.103Z,1013.68
2018-10-17T19:56:35.992Z,1013.67
2018-10-17T19:57:35.909Z,1013.67
2018-10-17T19:58:35.822Z,1013.65
2018-10-17T19:59:35.741Z,1013.66
2018-10-17T20:00:35.687Z,1013.64
2018-10-17T20:01:35.575Z,1013.65
2018-10-17T20:02:35.493Z,1013.70
2018-10-17T20:03:35.419Z,1013.70
2018-10-17T20:04:35.343Z,1013.69
2018-10-17T20:05:35.283Z,1013.73
2018-10-17T20:06:35.173Z,1013.71
2018-10-17T20:07:35.112Z,1013.69
2018-10-17T20:08:35.005Z,1013.70
2018-10-17T20:09:34.919Z,1013.72
2018-10-17T20:10:34.854Z,1013.69
2018-10-17T20:11:34.747Z,1013.71
2018-10-17T20:12:34.661Z,1013.69
2018-10-17T20:13:34.580Z,1013.72
2018-10-17T20:14:34.497Z,1013.68
2018-10-17T20:15:34.437Z,1013.71
2018-10-17T20:16:34.322Z,1013.71
2018-10-17T20:17:34.236Z,1013.70
2018-10-17T20:18:34.149Z,1013.71
2018-10-17T20:19:34.073Z,1013.72
2018-10-17T20:20:34.132Z,1013.72
2018-10-17T20:21:33.901Z,1013.71
2018-10-17T20:22:33.817Z,1013.75
2018-10-17T20:23:33.736Z,1013.74
2018-10-17T20:24:33.668Z,1013.77
2018-10-17T20:25:33.594Z,1013.79
2018-10-17T20:26:33.468Z,1013.77
2018-10-17T20:27:33.381Z,1013.78
2018-10-17T20:28:33.297Z,1013.77
2018-10-17T20:29:33.210Z,1013.79
2018-10-17T20:30:33.152Z,1013.82
2018-10-17T20:31:33.049Z,1013.84
2018-10-17T20:32:32.965Z,1013.84
2018-10-17T20:33:32.884Z,1013.91
2018-10-17T20:34:32.801Z,1013.84
2018-10-17T20:35:32.748Z,1013.86
2018-10-17T20:36:32.639Z,1013.85
2018-10-17T20:37:32.553Z,1013.85
2018-10-17T20:38:32.477Z,1013.85
2018-10-17T20:39:32.386Z,1013.89
2018-10-17T20:40:32.328Z,1013.89
2018-10-17T20:41:32.212Z,1013.88